Time;durP1;ratioP1;P1;durP2;ratioP2;P2;SDS_P1;SDS_P2;PMS_P1;PMS_P2;Temp;Humidity;BMP_temperature;BMP_pressure;BME280_temperature;BME280_humidity;BME280_pressure;Samples;Min_cycle;Max_cycle;Signal;HPM_P1;HPM_P2
2021/08/23 00:00:22;;;;;;;6.30;3.90;;;;;;;14.57;100.00;99154.38;4994342;28;20049;-68
2021/08/23 00:02:47;;;;;;;10.70;3.95;;;;;;;14.71;100.00;99150.50;4993769;28;20030;-68
2021/08/23 00:05:12;;;;;;;8.25;3.67;;;;;;;14.69;100.00;99158.88;4994400;28;20034;-68
2021/08/23 00:07:38;;;;;;;12.90;4.40;;;;;;;14.71;100.00;99160.56;4994770;28;20029;-68
2021/08/23 00:10:04;;;;;;;6.85;3.90;;;;;;;14.71;100.00;99160.56;4994010;28;20061;-68
2021/08/23 00:12:30;;;;;;;8.52;3.90;;;;;;;14.73;100.00;99164.72;4993824;28;20034;-68
2021/08/23 00:14:56;;;;;;;7.13;3.67;;;;;;;14.60;100.00;99162.94;4993582;28;20045;-68
2021/08/23 00:17:21;;;;;;;9.50;4.13;;;;;;;14.61;100.00;99159.16;4993271;28;20026;-68
2021/08/23 00:19:46;;;;;;;6.85;3.85;;;;;;;14.63;100.00;99154.31;4992876;28;20496;-68
2021/08/23 00:22:29;;;;;;;6.97;4.05;;;;;;;14.75;100.00;99162.63;4993459;28;20038;-68
2021/08/23 00:24:54;;;;;;;9.77;3.75;;;;;;;14.74;100.00;99155.50;4992679;28;20480;-68
2021/08/23 00:27:20;;;;;;;8.05;3.88;;;;;;;14.61;100.00;99161.03;4992782;28;20033;-68
2021/08/23 00:29:46;;;;;;;5.70;4.00;;;;;;;14.54;100.00;99161.09;4992337;28;20113;-68
2021/08/23 00:32:11;;;;;;;8.52;3.80;;;;;;;14.53;100.00;99153.16;4991932;28;20088;-68
2021/08/23 00:34:37;;;;;;;4.40;3.38;;;;;;;14.57;100.00;99159.81;4991984;28;20030;-68
2021/08/23 00:37:03;;;;;;;8.52;3.88;;;;;;;14.47;100.00;99155.66;5000256;28;20049;-68
2021/08/23 00:39:29;;;;;;;6.55;4.03;;;;;;;14.33;100.00;99151.38;4984832;28;20068;-68
2021/08/23 00:41:54;;;;;;;8.93;3.70;;;;;;;14.34;100.00;99155.75;4991173;28;20053;-68
2021/08/23 00:44:19;;;;;;;9.90;3.80;;;;;;;14.31;100.00;99133.59;4988371;28;20432;-68
2021/08/23 00:46:44;;;;;;;7.38;3.55;;;;;;;14.31;100.00;99139.03;4992594;28;20042;-68
2021/08/23 00:49:10;;;;;;;12.43;4.10;;;;;;;14.30;100.00;99142.78;4992377;28;20102;-68
2021/08/23 00:51:35;;;;;;;5.90;3.22;;;;;;;14.28;100.00;99145.75;4991807;28;20079;-68
2021/08/23 00:54:00;;;;;;;4.88;3.83;;;;;;;14.43;100.00;99139.97;4991652;28;20027;-68
2021/08/23 00:56:26;;;;;;;8.50;4.45;;;;;;;14.56;100.00;99139.09;4988998;28;20484;-68
2021/08/23 00:58:52;;;;;;;5.22;3.60;;;;;;;14.39;100.00;99128.72;4992487;28;20026;-68
2021/08/23 01:01:48;;;;;;;7.22;3.30;;;;;;;14.54;100.00;99149.34;4989959;28;20109;-68
2021/08/23 01:04:20;;;;;;;8.40;3.45;;;;;;;14.53;100.00;99143.09;4991798;28;20488;-68
2021/08/23 01:06:46;;;;;;;8.88;3.42;;;;;;;14.41;100.00;99126.59;4993192;28;20040;-68
2021/08/23 01:09:14;;;;;;;8.02;3.78;;;;;;;14.51;100.00;99147.03;4993377;28;20030;-68
2021/08/23 01:11:47;;;;;;;7.18;3.72;;;;;;;14.59;100.00;99133.19;4992008;28;20080;-68
2021/08/23 01:14:12;;;;;;;6.53;3.33;;;;;;;14.80;100.00;99148.31;4992984;28;20672;-68
2021/08/23 01:16:38;;;;;;;6.45;3.45;;;;;;;14.80;100.00;99154.63;4993222;28;20118;-68
2021/08/23 01:19:04;;;;;;;8.52;3.45;;;;;;;14.59;100.00;99127.75;4992865;28;20066;-68
2021/08/23 01:21:31;;;;;;;8.02;3.97;;;;;;;14.75;100.00;99134.53;4992084;28;20117;-68
2021/08/23 01:24:00;;;;;;;10.02;3.97;;;;;;;14.71;100.00;99145.03;4992111;28;20046;-68
2021/08/23 01:26:37;;;;;;;7.30;3.00;;;;;;;14.73;100.00;99148.38;4993154;28;20030;-68
2021/08/23 01:29:14;;;;;;;8.40;3.28;;;;;;;14.66;100.00;99125.81;4993350;28;20472;-68
2021/08/23 01:31:52;;;;;;;5.97;3.03;;;;;;;14.98;100.00;99158.44;4992891;28;20507;-68
2021/08/23 01:34:19;;;;;;;8.43;3.03;;;;;;;15.04;100.00;99152.94;4991996;28;20034;-70
2021/08/23 01:36:45;;;;;;;4.57;2.92;;;;;;;15.07;100.00;99152.50;4993339;28;20033;-68
2021/08/23 01:39:10;;;;;;;7.32;3.50;;;;;;;15.02;100.00;99151.50;4991483;28;20026;-68
2021/08/23 01:41:35;;;;;;;4.50;3.45;;;;;;;14.84;100.00;99152.28;4991709;28;20080;-68
2021/08/23 01:44:01;;;;;;;6.93;3.95;;;;;;;14.79;100.00;99150.22;4993409;28;20591;-68
2021/08/23 01:46:31;;;;;;;5.68;3.58;;;;;;;14.67;100.00;99144.66;4998159;28;20388;-69
2021/08/23 01:51:24;;;;;;;8.82;3.72;;;;;;;14.63;100.00;99146.16;5054373;23;20058;-71
2021/08/23 01:53:49;;;;;;;11.45;3.60;;;;;;;14.64;100.00;99145.09;5034109;28;20061;-69
2021/08/23 01:56:14;;;;;;;9.13;4.00;;;;;;;14.64;100.00;99145.09;5024480;28;20482;-68
2021/08/23 01:58:39;;;;;;;5.10;3.63;;;;;;;14.73;100.00;99150.28;5016419;28;20026;-69
2021/08/23 02:01:05;;;;;;;7.82;3.33;;;;;;;14.65;100.00;99144.03;5029738;28;20649;-69
2021/08/23 02:03:30;;;;;;;7.40;3.20;;;;;;;14.62;100.00;99139.03;5035982;28;20029;-69
2021/08/23 02:05:55;;;;;;;4.95;3.42;;;;;;;14.72;100.00;99145.88;5027260;28;20118;-69
2021/08/23 02:08:21;;;;;;;8.48;3.90;;;;;;;14.73;100.00;99144.84;5027617;28;20652;-69
2021/08/23 02:10:46;;;;;;;6.22;3.53;;;;;;;14.70;100.00;99140.66;5035270;28;20072;-69
2021/08/23 02:13:11;;;;;;;6.25;3.33;;;;;;;14.71;100.00;99146.94;5034921;28;20018;-69
2021/08/23 02:15:37;;;;;;;9.35;3.42;;;;;;;14.78;100.00;99147.72;5034369;28;20032;-69
2021/08/23 02:18:02;;;;;;;6.35;2.90;;;;;;;14.78;100.00;99140.38;5036000;28;20389;-69
2021/08/23 02:20:28;;;;;;;5.13;2.90;;;;;;;14.80;100.00;99149.16;5039674;28;20044;-69
2021/08/23 02:22:53;;;;;;;5.13;2.80;;;;;;;14.84;100.00;99149.56;5037089;28;20029;-70
2021/08/23 02:25:22;;;;;;;7.03;2.88;;;;;;;14.86;100.00;99136.56;5035045;28;20080;-69
2021/08/23 02:27:50;;;;;;;5.60;3.42;;;;;;;14.85;100.00;99145.75;5029125;28;20021;-69
2021/08/23 02:30:15;;;;;;;6.53;3.40;;;;;;;14.84;100.00;99150.38;5019005;28;20029;-69
2021/08/23 02:32:41;;;;;;;10.32;3.10;;;;;;;14.85;100.00;99140.31;5035252;28;20033;-69
2021/08/23 02:35:07;;;;;;;5.72;3.42;;;;;;;14.83;100.00;99147.91;5034923;28;20030;-70
2021/08/23 02:37:32;;;;;;;5.75;3.17;;;;;;;14.65;100.00;99130.44;5028422;28;20479;-69
2021/08/23 02:39:57;;;;;;;5.22;3.15;;;;;;;14.74;100.00;99146.50;5027731;28;20021;-70
2021/08/23 02:42:23;;;;;;;5.72;2.88;;;;;;;14.77;100.00;99141.41;5021354;28;20128;-69
2021/08/23 02:44:48;;;;;;;8.35;3.53;;;;;;;14.82;100.00;99149.75;5034993;28;20025;-70
2021/08/23 02:47:13;;;;;;;6.68;3.00;;;;;;;14.82;100.00;99151.66;5035225;28;20084;-70
2021/08/23 02:49:38;;;;;;;6.82;2.83;;;;;;;14.94;100.00;99149.06;5017250;28;20501;-70
2021/08/23 02:52:04;;;;;;;8.18;3.25;;;;;;;15.00;100.00;99153.59;5014330;28;20036;-70
2021/08/23 02:54:29;;;;;;;4.93;2.90;;;;;;;15.00;100.00;99154.44;5015789;28;20029;-70
2021/08/23 02:56:54;;;;;;;5.45;2.67;;;;;;;15.17;100.00;99153.84;5027458;28;20108;-70
2021/08/23 02:59:20;;;;;;;4.10;2.90;;;;;;;15.09;100.00;99152.25;5034007;28;20364;-70
2021/08/23 03:01:45;;;;;;;5.72;3.15;;;;;;;15.12;100.00;99152.66;5026563;28;20023;-70
2021/08/23 03:04:10;;;;;;;7.40;2.90;;;;;;;15.13;100.00;99159.75;5017686;28;20022;-70
2021/08/23 03:06:35;;;;;;;8.15;2.80;;;;;;;15.03;100.00;99148.53;5034736;28;20099;-70
2021/08/23 03:09:01;;;;;;;3.97;2.35;;;;;;;15.12;100.00;99152.66;5031143;28;20038;-70
2021/08/23 03:11:26;;;;;;;6.63;3.42;;;;;;;15.11;100.00;99156.41;5022387;28;20795;-70
2021/08/23 03:13:52;;;;;;;9.07;3.45;;;;;;;15.07;100.00;99157.09;5015086;28;20032;-70
2021/08/23 03:16:18;;;;;;;5.60;3.17;;;;;;;15.03;100.00;99150.44;5027227;28;20057;-70
2021/08/23 03:18:43;;;;;;;12.95;3.65;;;;;;;14.99;100.00;99155.50;5020996;28;20021;-70
2021/08/23 03:21:09;;;;;;;5.65;3.53;;;;;;;14.92;100.00;99143.81;5031746;28;20025;-70
2021/08/23 03:23:34;;;;;;;6.18;3.10;;;;;;;14.89;100.00;99130.66;5033762;28;20029;-70
2021/08/23 03:26:00;;;;;;;6.32;3.55;;;;;;;15.01;100.00;99147.09;5034609;28;20059;-70
2021/08/23 03:28:26;;;;;;;7.40;3.38;;;;;;;14.92;100.00;99134.81;5029700;28;20030;-70
2021/08/23 03:30:51;;;;;;;6.10;3.05;;;;;;;15.03;100.00;99151.25;5023949;28;20091;-71
2021/08/23 03:33:17;;;;;;;7.13;3.60;;;;;;;15.07;100.00;99148.94;5026635;28;20026;-70
2021/08/23 03:35:42;;;;;;;11.88;3.53;;;;;;;14.89;100.00;99136.94;5020603;28;20083;-71
2021/08/23 03:38:09;;;;;;;4.75;3.28;;;;;;;15.18;100.00;99156.38;5026368;28;20026;-70
2021/08/23 03:40:34;;;;;;;4.95;3.10;;;;;;;15.31;100.00;99149.94;5033405;28;20025;-70
2021/08/23 03:42:59;;;;;;;9.32;3.30;;;;;;;15.13;100.00;99154.31;5034424;28;20033;-70
2021/08/23 03:45:25;;;;;;;6.50;3.50;;;;;;;15.10;100.00;99154.75;5030144;28;20025;-70
2021/08/23 03:47:50;;;;;;;6.55;3.72;;;;;;;15.06;100.00;99158.16;5031859;28;20120;-70
2021/08/23 03:50:15;;;;;;;4.60;2.90;;;;;;;15.09;100.00;99161.28;5029254;28;20037;-70
2021/08/23 03:52:41;;;;;;;7.60;2.85;;;;;;;15.08;100.00;99153.31;5033641;28;20033;-70
2021/08/23 03:55:07;;;;;;;5.68;2.72;;;;;;;15.06;100.00;99156.28;5033188;28;20114;-70
2021/08/23 03:57:35;;;;;;;4.50;2.80;;;;;;;15.17;100.00;99153.84;5033151;28;20040;-70
2021/08/23 04:00:01;;;;;;;4.70;2.83;;;;;;;15.11;100.00;99152.84;5031490;28;20112;-70
2021/08/23 04:02:26;;;;;;;4.13;2.72;;;;;;;15.12;100.00;99151.81;5033945;28;20029;-70
2021/08/23 04:04:52;;;;;;;7.07;2.78;;;;;;;15.07;100.00;99157.09;5024954;28;20034;-70
2021/08/23 04:07:17;;;;;;;5.28;3.00;;;;;;;15.04;100.00;99139.31;5020440;28;20033;-72
2021/08/23 04:09:42;;;;;;;6.15;3.03;;;;;;;15.08;100.00;99150.59;5023201;28;20029;-72
2021/08/23 04:12:08;;;;;;;8.73;3.50;;;;;;;15.07;100.00;99160.66;5023588;28;20438;-70
2021/08/23 04:14:33;;;;;;;4.55;2.88;;;;;;;15.08;100.00;99156.88;5013973;28;20025;-71
2021/08/23 04:16:58;;;;;;;6.05;3.60;;;;;;;15.05;100.00;99156.50;5025148;28;20071;-72
2021/08/23 04:19:24;;;;;;;4.47;3.00;;;;;;;15.04;100.00;99158.38;5029105;28;20113;-73
2021/08/23 04:21:49;;;;;;;5.72;3.10;;;;;;;15.10;100.00;99165.66;5027921;28;20495;-73
2021/08/23 04:24:14;;;;;;;5.05;2.50;;;;;;;14.99;100.00;99147.31;5032021;28;20029;-72
2021/08/23 04:26:39;;;;;;;4.95;2.60;;;;;;;15.00;100.00;99159.88;5033422;28;20498;-68
2021/08/23 04:29:05;;;;;;;5.25;2.40;;;;;;;15.07;100.00;99168.00;5034390;28;20419;-71
2021/08/23 04:31:31;;;;;;;7.30;2.83;;;;;;;14.99;100.00;99171.84;5031971;28;20017;-71
2021/08/23 04:33:57;;;;;;;4.20;2.63;;;;;;;14.97;100.00;99164.94;5029126;28;20057;-72
2021/08/23 04:36:22;;;;;;;4.85;3.05;;;;;;;14.97;100.00;99151.34;5033706;28;20521;-71
2021/08/23 04:38:47;;;;;;;8.15;3.33;;;;;;;14.96;100.00;99163.25;5028284;28;20442;-71
2021/08/23 04:41:13;;;;;;;7.45;3.15;;;;;;;14.94;100.00;99166.22;5031845;28;20056;-71
2021/08/23 04:43:38;;;;;;;4.00;3.13;;;;;;;14.93;100.00;99170.00;5039761;28;20029;-71
2021/08/23 04:46:03;;;;;;;4.88;3.15;;;;;;;14.91;100.00;99183.03;5029314;28;20026;-69
2021/08/23 04:48:28;;;;;;;7.40;3.22;;;;;;;14.85;100.00;99173.00;5020415;28;20100;-69
2021/08/23 04:50:54;;;;;;;5.85;3.05;;;;;;;14.83;100.00;99178.69;5013593;28;20468;-69
2021/08/23 04:53:19;;;;;;;8.05;3.63;;;;;;;14.81;100.00;99177.25;5015417;28;20079;-68
2021/08/23 04:55:44;;;;;;;6.70;2.95;;;;;;;14.72;100.00;99173.94;5028500;28;20026;-71
2021/08/23 04:58:09;;;;;;;5.65;2.90;;;;;;;14.82;100.00;99177.00;5021786;28;20092;-72
2021/08/23 05:00:35;;;;;;;9.85;2.88;;;;;;;14.88;100.00;99175.28;5032788;28;20028;-73
2021/08/23 05:03:00;;;;;;;8.20;3.08;;;;;;;14.83;100.00;99161.50;5017493;28;20025;-73
2021/08/23 05:05:26;;;;;;;9.02;3.10;;;;;;;14.86;100.00;99170.06;5031983;28;20029;-68
2021/08/23 05:07:51;;;;;;;6.75;2.88;;;;;;;14.96;100.00;99185.06;5025785;28;20097;-67
2021/08/23 05:10:17;;;;;;;5.18;2.97;;;;;;;14.96;100.00;99185.91;5011665;28;20030;-67
2021/08/23 05:12:42;;;;;;;5.10;2.78;;;;;;;15.04;100.00;99185.63;5019395;28;20372;-67
2021/08/23 05:15:09;;;;;;;6.70;3.45;;;;;;;15.03;100.00;99177.66;5025268;28;20024;-72
2021/08/23 05:17:34;;;;;;;5.65;2.83;;;;;;;15.13;100.00;99184.28;5031103;28;20059;-73
2021/08/23 05:20:00;;;;;;;11.10;4.70;;;;;;;15.09;100.00;99176.78;5028629;28;20021;-73
2021/08/23 05:22:25;;;;;;;6.50;4.22;;;;;;;15.17;100.00;99192.00;5032988;28;20025;-69
2021/08/23 05:24:51;;;;;;;6.72;3.55;;;;;;;15.15;100.00;99188.69;5032669;28;20036;-74
2021/08/23 05:27:16;;;;;;;6.72;3.50;;;;;;;15.08;100.00;99191.47;5031246;28;20037;-69
2021/08/23 05:29:43;;;;;;;5.57;3.40;;;;;;;15.05;100.00;99184.56;5035745;28;20483;-72
2021/08/23 05:32:09;;;;;;;5.45;2.80;;;;;;;15.13;100.00;99178.84;5032641;28;20029;-70
2021/08/23 05:34:34;;;;;;;6.15;3.28;;;;;;;15.09;100.00;99187.66;5032222;28;20029;-72
2021/08/23 05:37:00;;;;;;;6.25;3.42;;;;;;;15.07;100.00;99178.91;5019411;28;20117;-71
2021/08/23 05:39:25;;;;;;;6.30;2.95;;;;;;;15.09;100.00;99190.41;5023439;28;20104;-71
2021/08/23 05:41:50;;;;;;;8.38;2.63;;;;;;;15.08;100.00;99186.84;5028500;28;20025;-71
2021/08/23 05:44:16;;;;;;;4.68;2.97;;;;;;;15.16;100.00;99184.91;5022806;28;20072;-71
2021/08/23 05:46:41;;;;;;;5.53;3.05;;;;;;;15.15;100.00;99191.41;5023166;28;20494;-71
2021/08/23 05:49:06;;;;;;;4.78;3.38;;;;;;;15.16;100.00;99185.72;5018389;28;20022;-71
2021/08/23 05:51:32;;;;;;;5.32;3.53;;;;;;;15.18;100.00;99189.06;5022597;28;20475;-71
2021/08/23 05:53:57;;;;;;;4.43;3.05;;;;;;;15.16;100.00;99182.19;5019101;28;20049;-71
2021/08/23 05:56:22;;;;;;;5.57;2.92;;;;;;;15.30;100.00;99192.75;5024149;28;20056;-71
2021/08/23 05:58:48;;;;;;;5.07;2.95;;;;;;;15.38;100.00;99182.56;5021131;28;20386;-71
2021/08/23 06:01:13;;;;;;;7.45;2.97;;;;;;;15.45;100.00;99188.81;5025889;28;20037;-71
2021/08/23 06:03:38;;;;;;;8.93;3.00;;;;;;;15.44;100.00;99170.78;5019586;28;20033;-71
2021/08/23 06:06:05;;;;;;;4.13;2.70;;;;;;;15.65;100.00;99183.16;5017955;28;20056;-71
2021/08/23 06:08:32;;;;;;;5.63;2.75;;;;;;;15.78;100.00;99191.22;5019924;28;20029;-71
2021/08/23 06:10:57;;;;;;;6.15;3.28;;;;;;;15.83;100.00;99191.38;5019262;28;20471;-72
2021/08/23 06:13:22;;;;;;;8.40;3.47;;;;;;;15.84;99.97;99184.84;5024955;28;20079;-71
2021/08/23 06:15:47;;;;;;;9.85;2.95;;;;;;;15.93;97.85;99169.00;5023037;28;20025;-71
2021/08/23 06:18:14;;;;;;;6.45;3.08;;;;;;;16.09;97.94;99182.00;5020431;28;20025;-72
2021/08/23 06:20:39;;;;;;;4.15;2.88;;;;;;;16.20;96.95;99183.97;5022675;28;20086;-71
2021/08/23 06:23:04;;;;;;;7.93;2.58;;;;;;;16.25;96.22;99188.72;5016832;28;20104;-72
2021/08/23 06:25:30;;;;;;;5.60;2.47;;;;;;;16.48;94.83;99182.53;5025250;28;20641;-71
2021/08/23 06:27:55;;;;;;;7.88;2.72;;;;;;;16.59;93.67;99189.09;5028714;28;20079;-70
2021/08/23 06:30:20;;;;;;;7.40;2.25;;;;;;;16.68;92.21;99192.31;5025653;28;20025;-72
2021/08/23 06:32:46;;;;;;;5.10;2.42;;;;;;;16.75;91.40;99182.94;5026356;28;20025;-73
2021/08/23 06:35:11;;;;;;;6.20;2.28;;;;;;;16.86;92.67;99190.38;5018569;28;20105;-73
2021/08/23 06:37:38;;;;;;;6.03;2.38;;;;;;;16.77;93.43;99178.13;5024012;28;20029;-73
2021/08/23 06:40:08;;;;;;;5.00;2.22;;;;;;;17.04;91.55;99180.41;5030017;28;20162;-72
2021/08/23 06:42:33;;;;;;;6.75;2.30;;;;;;;16.79;92.04;99186.94;5028257;28;20079;-70
2021/08/23 06:44:59;;;;;;;3.85;2.33;;;;;;;16.44;92.39;99187.59;5031480;28;20032;-70
2021/08/23 06:47:24;;;;;;;4.68;2.15;;;;;;;16.67;93.53;99190.66;5025937;28;20025;-68
2021/08/23 06:49:49;;;;;;;5.18;2.08;;;;;;;16.66;93.08;99195.28;5031347;28;20044;-68
2021/08/23 06:52:15;;;;;;;5.57;2.10;;;;;;;16.60;92.56;99188.84;5036082;28;20026;-68
2021/08/23 06:54:40;;;;;;;5.43;2.20;;;;;;;16.44;92.35;99204.00;5026840;28;20044;-70
2021/08/23 06:57:06;;;;;;;4.53;1.77;;;;;;;16.31;93.26;99196.00;5021537;28;20429;-70
2021/08/23 06:59:32;;;;;;;4.18;1.90;;;;;;;16.33;93.82;99198.50;5031842;28;20033;-70
2021/08/23 07:01:57;;;;;;;2.83;2.20;;;;;;;16.65;92.24;99179.97;5034425;28;20186;-70
2021/08/23 07:04:22;;;;;;;3.75;2.03;;;;;;;17.03;91.25;99197.91;5041606;28;20025;-70
2021/08/23 07:06:47;;;;;;;5.22;1.95;;;;;;;17.83;87.17;99188.25;5022308;28;20031;-74
2021/08/23 07:09:13;;;;;;;4.95;2.00;;;;;;;18.39;83.79;99192.09;5041205;28;20104;-73
2021/08/23 07:11:38;;;;;;;5.07;1.90;;;;;;;18.76;80.31;99175.31;5042966;28;20037;-71
2021/08/23 07:14:04;;;;;;;4.97;2.30;;;;;;;18.80;79.36;99187.41;5039756;28;20045;-71
2021/08/23 07:16:29;;;;;;;7.72;2.13;;;;;;;18.66;80.78;99186.06;5044967;28;20101;-71
2021/08/23 07:18:55;;;;;;;5.10;2.03;;;;;;;17.65;85.64;99197.41;5049063;28;20022;-70
2021/08/23 07:21:20;;;;;;;3.30;1.90;;;;;;;17.73;84.47;99197.88;5049041;28;20096;-71
2021/08/23 07:23:45;;;;;;;2.58;1.80;;;;;;;17.66;84.99;99185.41;5039997;28;20030;-69
2021/08/23 07:26:11;;;;;;;4.93;2.28;;;;;;;17.52;87.19;99188.38;5046507;28;20056;-72
2021/08/23 07:28:36;;;;;;;4.25;2.42;;;;;;;17.57;87.84;99195.03;5042223;28;20110;-72
2021/08/23 07:31:01;;;;;;;6.32;2.63;;;;;;;17.20;87.40;99184.34;5046051;28;20036;-73
2021/08/23 07:33:27;;;;;;;5.75;2.33;;;;;;;17.25;87.72;99188.03;5036991;28;20091;-74
2021/08/23 07:35:52;;;;;;;4.35;2.00;;;;;;;17.17;88.75;99191.13;5051140;28;20025;-73
2021/08/23 07:38:17;;;;;;;4.18;1.95;;;;;;;16.89;90.04;99210.94;5044484;28;20037;-68
2021/08/23 07:40:43;;;;;;;6.28;2.38;;;;;;;16.69;91.01;99199.44;5034857;28;20086;-68
2021/08/23 07:43:08;;;;;;;4.50;2.40;;;;;;;16.32;93.71;99197.69;5032540;28;20499;-68
2021/08/23 07:45:35;;;;;;;6.28;2.63;;;;;;;16.19;94.20;99203.28;5034645;28;20107;-68
2021/08/23 07:48:00;;;;;;;3.63;2.42;;;;;;;16.13;96.11;99212.41;5036005;28;20021;-69
2021/08/23 07:50:26;;;;;;;4.40;2.45;;;;;;;15.79;97.02;99173.78;5032156;23;20054;-77
2021/08/23 07:52:51;;;;;;;5.57;2.40;;;;;;;15.77;96.44;99174.00;4994200;28;20034;-78
2021/08/23 07:55:17;;;;;;;10.05;2.72;;;;;;;15.52;99.01;99184.94;5002654;28;20018;-78
2021/08/23 07:57:44;;;;;;;8.05;2.97;;;;;;;15.74;100.00;99214.53;4991902;28;20018;-77
2021/08/23 08:00:11;;;;;;;6.00;2.70;;;;;;;15.81;100.00;99196.22;4990437;28;20030;-76
2021/08/23 08:02:36;;;;;;;5.00;2.65;;;;;;;15.59;100.00;99182.16;4974122;28;20424;-75
2021/08/23 08:05:02;;;;;;;6.15;3.10;;;;;;;15.71;99.91;99187.72;4973739;28;20037;-76
2021/08/23 08:07:27;;;;;;;6.55;2.97;;;;;;;15.65;100.00;99183.16;4965838;28;20027;-77
2021/08/23 08:09:52;;;;;;;8.73;3.30;;;;;;;15.78;100.00;99200.22;4959793;28;20019;-76
2021/08/23 08:12:17;;;;;;;5.90;2.90;;;;;;;15.93;100.00;99201.75;4966616;28;20031;-72
2021/08/23 08:14:43;;;;;;;9.52;3.05;;;;;;;16.22;98.94;99216.50;4954849;29;20015;-75
2021/08/23 08:17:08;;;;;;;4.35;2.40;;;;;;;16.18;98.32;99197.00;4953669;29;20100;-72
2021/08/23 08:19:33;;;;;;;4.53;2.70;;;;;;;16.12;98.08;99192.47;4957898;28;20161;-71
2021/08/23 08:22:04;;;;;;;6.35;3.03;;;;;;;16.36;98.48;99215.25;4965262;28;20050;-75
2021/08/23 08:24:29;;;;;;;8.20;2.72;;;;;;;16.46;97.93;99220.16;4973952;28;20052;-73
2021/08/23 08:26:55;;;;;;;6.63;2.60;;;;;;;16.49;97.34;99208.78;4972834;28;20034;-73
2021/08/23 08:29:20;;;;;;;5.68;2.65;;;;;;;16.38;96.94;99213.13;4970334;28;20523;-73
2021/08/23 08:31:46;;;;;;;6.35;2.42;;;;;;;16.33;97.42;99218.44;4953623;28;20374;-73
2021/08/23 08:34:11;;;;;;;3.85;2.63;;;;;;;16.44;96.47;99214.09;4955150;28;20029;-73
2021/08/23 08:36:37;;;;;;;5.07;2.50;;;;;;;16.43;97.18;99209.72;4964444;28;20119;-73
2021/08/23 08:39:03;;;;;;;4.65;2.53;;;;;;;16.32;95.46;99196.81;4975128;28;20098;-73
2021/08/23 08:41:30;;;;;;;6.57;2.65;;;;;;;16.52;95.43;99237.53;4966602;28;20403;-71
2021/08/23 08:43:56;;;;;;;3.30;2.25;;;;;;;16.74;95.68;99240.56;4971514;28;20121;-69
2021/08/23 08:46:21;;;;;;;9.57;2.70;;;;;;;16.71;94.83;99197.31;4973842;28;20110;-72
2021/08/23 08:48:47;;;;;;;9.38;2.80;;;;;;;17.02;93.40;99220.81;4972145;28;20027;-72
2021/08/23 08:51:14;;;;;;;4.57;2.30;;;;;;;17.17;91.80;99209.44;4963437;28;20031;-73
2021/08/23 08:53:39;;;;;;;5.40;2.58;;;;;;;17.47;91.34;99223.00;4952955;28;20063;-74
2021/08/23 08:56:05;;;;;;;4.88;2.30;;;;;;;17.63;90.10;99233.25;4961096;28;20480;-72
2021/08/23 08:58:30;;;;;;;7.82;2.58;;;;;;;17.77;90.47;99224.78;4972781;28;20504;-75
2021/08/23 09:00:55;;;;;;;5.13;2.38;;;;;;;17.94;90.78;99217.50;4973407;28;20081;-75
2021/08/23 09:03:29;;;;;;;8.90;2.97;;;;;;;17.90;91.18;99211.69;4973095;28;20046;-74
2021/08/23 09:06:02;;;;;;;4.03;2.42;;;;;;;18.01;86.14;99234.63;4956695;28;20037;-75
2021/08/23 09:08:29;;;;;;;5.55;2.38;;;;;;;17.97;85.39;99203.31;4970974;28;20027;-75
2021/08/23 09:10:55;;;;;;;4.65;2.20;;;;;;;18.22;86.20;99224.13;4959207;28;20082;-75
2021/08/23 09:13:22;;;;;;;6.80;2.67;;;;;;;18.17;87.62;99231.13;4958551;28;20425;-74
2021/08/23 09:15:55;;;;;;;3.97;2.47;;;;;;;17.98;86.95;99218.69;4961643;28;20097;-75
2021/08/23 09:18:29;;;;;;;5.05;2.50;;;;;;;18.09;87.16;99237.00;4970897;28;20036;-75
2021/08/23 09:21:04;;;;;;;4.50;2.28;;;;;;;18.40;85.36;99254.88;4973191;28;20035;-71
2021/08/23 09:23:38;;;;;;;4.35;2.80;;;;;;;18.69;82.61;99254.06;4971884;28;20120;-72
2021/08/23 09:26:15;;;;;;;3.75;2.60;;;;;;;18.76;83.64;99247.41;4973314;28;20019;-72
2021/08/23 09:28:42;;;;;;;6.47;2.60;;;;;;;18.87;83.09;99233.88;4973166;28;20157;-72
2021/08/23 09:31:10;;;;;;;6.40;2.70;;;;;;;19.24;80.24;99235.06;4972919;28;20110;-72
2021/08/23 09:33:46;;;;;;;7.65;2.83;;;;;;;20.01;78.77;99254.59;4976110;28;20021;-72
2021/08/23 09:36:17;;;;;;;5.00;2.80;;;;;;;20.39;77.57;99229.00;4958274;28;20023;-75
2021/08/23 09:38:43;;;;;;;4.05;2.72;;;;;;;21.43;73.83;99236.09;4965436;28;20491;-73
2021/08/23 09:41:09;;;;;;;3.58;2.63;;;;;;;22.61;65.38;99219.31;4969808;28;20037;-72
2021/08/23 09:43:35;;;;;;;6.10;2.60;;;;;;;23.15;62.37;99221.63;4953491;28;20476;-74
2021/08/23 09:46:12;;;;;;;4.90;2.80;;;;;;;23.73;61.56;99233.19;4958636;28;20034;-73
2021/08/23 09:48:51;;;;;;;7.72;2.90;;;;;;;25.14;60.85;99225.63;4962358;28;20034;-73
2021/08/23 09:51:27;;;;;;;;;;;;;;;25.30;57.13;99231.91;4971749;28;20054;-73
2021/08/23 09:54:07;;;;;;;4.70;2.10;;;;;;;24.06;59.21;99231.75;4971555;28;19918;-73
2021/08/23 09:56:34;;;;;;;4.55;2.22;;;;;;;23.46;62.10;99229.91;4952409;29;20086;-73
2021/08/23 09:59:02;;;;;;;3.38;2.17;;;;;;;22.77;65.34;99210.00;4953670;28;20023;-73
2021/08/23 10:01:31;;;;;;;5.40;2.47;;;;;;;22.61;66.75;99211.91;4967670;28;20033;-71
2021/08/23 10:04:02;;;;;;;4.10;2.05;;;;;;;23.05;63.52;99225.22;4969056;28;20656;-72
2021/08/23 10:06:28;;;;;;;4.22;2.33;;;;;;;23.38;63.68;99242.34;4965301;28;20054;-72
2021/08/23 10:08:54;;;;;;;4.93;2.08;;;;;;;24.14;59.14;99230.34;4973018;28;20023;-72
2021/08/23 10:11:21;;;;;;;3.20;1.80;;;;;;;24.36;58.98;99223.59;4973520;28;20027;-72
2021/08/23 10:13:47;;;;;;;6.53;2.22;;;;;;;23.81;59.82;99235.41;4963948;28;20110;-72
2021/08/23 10:16:12;;;;;;;4.57;1.73;;;;;;;23.58;60.03;99213.88;4965061;28;20105;-72
2021/08/23 10:18:39;;;;;;;4.15;2.22;;;;;;;23.83;61.19;99227.66;4957440;28;20051;-72
2021/08/23 10:21:07;;;;;;;6.28;1.92;;;;;;;23.34;61.65;99219.13;4954282;29;20038;-72
2021/08/23 10:23:35;;;;;;;4.40;2.15;;;;;;;22.87;64.34;99248.63;4954160;28;20667;-72
2021/08/23 10:26:00;;;;;;;4.80;2.20;;;;;;;22.00;65.74;99236.44;4961912;28;20041;-72
2021/08/23 10:28:35;;;;;;;5.18;1.95;;;;;;;21.26;68.27;99237.31;4968544;28;20018;-72
2021/08/23 10:31:08;;;;;;;8.98;2.70;;;;;;;20.16;73.47;99237.50;4972461;28;20057;-72
2021/08/23 10:33:36;;;;;;;8.30;3.20;;;;;;;19.66;78.56;99244.75;4954020;29;20401;-72
2021/08/23 10:36:04;;;;;;;6.28;3.15;;;;;;;18.94;81.79;99221.69;4964611;28;20465;-72
2021/08/23 10:38:30;;;;;;;7.32;3.50;;;;;;;18.31;86.05;99225.38;4967223;28;20034;-72
2021/08/23 10:41:16;;;;;;;3.95;2.95;;;;;;;18.39;86.59;99246.91;4972506;28;20030;-72
2021/08/23 10:43:50;;;;;;;5.75;3.78;;;;;;;18.29;87.88;99257.69;4970921;28;20038;-72
2021/08/23 10:46:36;;;;;;;5.78;3.72;;;;;;;18.38;87.87;99239.78;4974095;28;20035;-72
2021/08/23 10:49:16;;;;;;;5.18;3.10;;;;;;;18.60;87.25;99242.66;4970990;28;20059;-72
2021/08/23 10:51:43;;;;;;;6.10;3.78;;;;;;;18.85;85.95;99247.00;4954494;29;20033;-72
2021/08/23 10:54:28;;;;;;;6.07;3.15;;;;;;;19.29;84.22;99244.47;4966803;28;20081;-72
2021/08/23 10:56:59;;;;;;;5.65;3.10;;;;;;;20.04;81.00;99240.34;4954507;28;20035;-72
2021/08/23 10:59:35;;;;;;;4.68;3.15;;;;;;;20.66;77.73;99219.97;4978898;28;20403;-72
2021/08/23 11:02:01;;;;;;;6.40;3.30;;;;;;;21.50;74.62;99246.88;4971048;28;20125;-72
2021/08/23 11:04:36;;;;;;;9.25;3.22;;;;;;;22.43;71.17;99242.72;4972424;28;20126;-72
2021/08/23 11:07:02;;;;;;;6.65;3.00;;;;;;;23.37;67.29;99241.53;4972615;28;20425;-72
2021/08/23 11:09:42;;;;;;;4.35;2.22;;;;;;;24.28;63.31;99234.13;4961354;28;20035;-72
2021/08/23 11:12:13;;;;;;;4.88;2.65;;;;;;;24.34;62.33;99226.66;4954522;28;20033;-72
2021/08/23 11:14:53;;;;;;;4.40;2.22;;;;;;;24.11;62.16;99228.13;4969352;28;20023;-72
2021/08/23 11:17:27;;;;;;;5.28;2.70;;;;;;;23.95;62.40;99221.84;4971564;28;20045;-72
2021/08/23 11:19:53;;;;;;;3.58;2.08;;;;;;;24.05;61.69;99226.47;4970231;28;20130;-72
2021/08/23 11:22:18;;;;;;;4.13;2.13;;;;;;;22.87;61.83;99196.22;4973086;28;20062;-72
2021/08/23 11:24:43;;;;;;;5.15;1.90;;;;;;;23.10;63.46;99219.69;4970585;28;20042;-72
2021/08/23 11:27:09;;;;;;;2.80;1.75;;;;;;;23.67;63.70;99203.09;4962495;28;20119;-72
2021/08/23 11:29:38;;;;;;;2.50;1.58;;;;;;;23.15;63.52;99200.38;4971805;28;20057;-72